createdAt,value
2018-12-20T00:00:02.209Z,4.9
2018-12-20T00:05:01.478Z,4.9
2018-12-20T00:10:01.171Z,5
2018-12-20T00:15:01.840Z,5
2018-12-20T00:20:01.966Z,5
2018-12-20T00:25:01.648Z,5
2018-12-20T00:30:01.494Z,5
2018-12-20T00:35:01.505Z,4.9
2018-12-20T00:40:06.339Z,4.9
2018-12-20T00:45:01.242Z,4.8
2018-12-20T00:50:02.306Z,4.8
2018-12-20T00:55:01.824Z,4.8
2018-12-20T01:00:01.713Z,4.7
2018-12-20T01:05:01.787Z,4.5
2018-12-20T01:10:02.668Z,4.5
2018-12-20T01:15:01.955Z,4.3
2018-12-20T01:20:01.793Z,4.1
2018-12-20T01:25:01.933Z,4
2018-12-20T01:30:01.734Z,4.1
2018-12-20T01:35:01.722Z,4
2018-12-20T01:40:01.940Z,3.9
2018-12-20T01:45:02.327Z,3.9
2018-12-20T01:50:01.855Z,3.9
2018-12-20T01:55:01.362Z,3.9
2018-12-20T02:00:01.232Z,4
2018-12-20T02:05:01.592Z,4.1
2018-12-20T02:10:01.297Z,4.2
2018-12-20T02:15:02.186Z,4.1
2018-12-20T02:20:01.462Z,4.2
2018-12-20T02:25:02.169Z,4.3
2018-12-20T02:30:02.030Z,4.3
2018-12-20T02:35:02.092Z,4.4
2018-12-20T02:40:02.360Z,4.5
2018-12-20T02:45:10.460Z,4.5
2018-12-20T02:50:01.939Z,4.6
2018-12-20T02:55:01.891Z,4.6
2018-12-20T03:00:01.316Z,4.6
2018-12-20T03:05:01.805Z,4.6
2018-12-20T03:10:02.061Z,4.7
2018-12-20T03:15:01.914Z,4.7
2018-12-20T03:20:01.202Z,4.7
2018-12-20T03:25:01.426Z,4.8
2018-12-20T03:30:01.556Z,4.8
2018-12-20T03:35:01.777Z,4.8
2018-12-20T03:40:02.116Z,4.8
2018-12-20T03:45:01.972Z,4.8
2018-12-20T03:50:01.804Z,4.8
2018-12-20T03:55:02.010Z,4.8
2018-12-20T04:00:02.699Z,4.8
2018-12-20T04:05:01.494Z,4.7
2018-12-20T04:10:01.379Z,4.7
2018-12-20T04:15:02.036Z,4.8
2018-12-20T04:20:02.026Z,4.8
2018-12-20T04:25:01.648Z,4.7
2018-12-20T04:30:01.726Z,4.7
2018-12-20T04:35:01.779Z,4.7
2018-12-20T04:40:01.634Z,4.7
2018-12-20T04:45:02.388Z,4.7
2018-12-20T04:50:01.716Z,4.7
2018-12-20T04:55:02.070Z,4.7
2018-12-20T05:00:01.241Z,4.6
2018-12-20T05:05:01.409Z,4.6
2018-12-20T05:10:01.495Z,4.6
2018-12-20T05:15:02.044Z,4.7
2018-12-20T05:20:01.907Z,4.7
2018-12-20T05:25:01.505Z,4.7
2018-12-20T05:30:01.397Z,4.7
2018-12-20T05:35:01.861Z,4.7
2018-12-20T05:40:02.076Z,4.7
2018-12-20T05:45:01.616Z,4.7
2018-12-20T05:50:01.717Z,4.7
2018-12-20T05:55:02.420Z,4.8
2018-12-20T06:00:01.794Z,4.8
2018-12-20T06:05:01.484Z,4.8
2018-12-20T06:10:01.532Z,4.8
2018-12-20T06:15:01.723Z,4.8
2018-12-20T06:20:01.770Z,4.8
2018-12-20T06:25:01.320Z,4.8
2018-12-20T06:30:01.965Z,4.9
2018-12-20T06:35:01.362Z,4.9
2018-12-20T06:40:01.225Z,5
2018-12-20T06:45:01.953Z,4.9
2018-12-20T06:50:01.934Z,5
2018-12-20T06:55:01.726Z,4.9
2018-12-20T07:00:01.463Z,5
2018-12-20T07:05:01.778Z,4.9
2018-12-20T07:10:01.419Z,4.9
2018-12-20T07:15:02.472Z,4.9
2018-12-20T07:20:02.109Z,4.9
2018-12-20T07:25:01.483Z,5
2018-12-20T07:30:01.791Z,5
2018-12-20T07:35:01.398Z,5
2018-12-20T07:40:02.103Z,5.1
2018-12-20T07:45:01.861Z,5.1
2018-12-20T07:50:02.166Z,5.1
2018-12-20T07:55:02.043Z,5.2
2018-12-20T08:00:01.454Z,5.2
2018-12-20T08:05:01.871Z,5.1
2018-12-20T08:10:02.469Z,5
2018-12-20T08:15:01.527Z,5.1
2018-12-20T08:20:01.905Z,5.1
2018-12-20T08:25:01.253Z,5.1
2018-12-20T08:30:01.675Z,5.1
2018-12-20T08:35:01.818Z,5.1
2018-12-20T08:40:01.611Z,5.2
2018-12-20T08:45:01.375Z,5.3
2018-12-20T08:50:01.473Z,5.3
2018-12-20T08:55:02.057Z,5.4
2018-12-20T09:00:01.427Z,5.4
2018-12-20T09:05:02.169Z,5.4
2018-12-20T09:10:02.008Z,5.5
2018-12-20T09:15:01.350Z,5.5
2018-12-20T09:20:01.220Z,5.5
2018-12-20T09:25:02.458Z,5.5
2018-12-20T09:30:01.384Z,5.6
2018-12-20T09:35:01.445Z,5.6
2018-12-20T09:40:01.214Z,5.7
2018-12-20T09:45:01.425Z,5.7
2018-12-20T09:50:01.541Z,5.8
2018-12-20T09:55:01.685Z,5.8
2018-12-20T10:00:02.285Z,5.8
2018-12-20T10:05:01.399Z,5.8
2018-12-20T10:10:01.451Z,5.9
2018-12-20T10:15:01.141Z,5.9
2018-12-20T10:20:01.916Z,5.9
2018-12-20T10:25:01.521Z,6
2018-12-20T10:30:01.974Z,6
2018-12-20T10:35:01.608Z,6.1
2018-12-20T10:40:01.611Z,6.1
2018-12-20T10:45:01.840Z,6.2
2018-12-20T10:50:01.463Z,6.2
2018-12-20T10:55:01.796Z,6.3
2018-12-20T11:00:01.376Z,6.3
2018-12-20T11:05:01.650Z,6.3
2018-12-20T11:10:01.357Z,6.4
2018-12-20T11:15:01.317Z,6.5
2018-12-20T11:20:02.307Z,6.5
2018-12-20T11:25:01.993Z,6.5
2018-12-20T11:30:01.318Z,6.6
2018-12-20T11:35:01.512Z,6.6
2018-12-20T11:40:01.527Z,6.7
2018-12-20T11:45:01.591Z,7
2018-12-20T11:50:01.528Z,7.1
2018-12-20T11:55:01.578Z,7.1
2018-12-20T12:00:01.163Z,7
2018-12-20T12:05:02.029Z,7
2018-12-20T12:10:02.250Z,7
2018-12-20T12:15:01.284Z,6.9
2018-12-20T12:20:01.579Z,6.9
2018-12-20T12:25:01.806Z,6.9
2018-12-20T12:30:01.266Z,7
2018-12-20T12:35:01.427Z,7
2018-12-20T12:40:02.118Z,7
2018-12-20T12:45:02.015Z,6.9
2018-12-20T12:50:01.133Z,7
2018-12-20T12:55:01.493Z,7
2018-12-20T13:00:01.192Z,6.9
2018-12-20T13:05:01.864Z,7
2018-12-20T13:10:01.687Z,6.9
2018-12-20T13:15:01.323Z,7
2018-12-20T13:20:01.413Z,7
2018-12-20T13:25:01.770Z,7
2018-12-20T13:30:02.068Z,7
2018-12-20T13:35:01.981Z,7
2018-12-20T13:40:01.882Z,7
2018-12-20T13:45:01.266Z,7
2018-12-20T13:50:01.196Z,7
2018-12-20T13:55:01.975Z,7
2018-12-20T14:00:01.470Z,7
2018-12-20T14:05:01.336Z,7
2018-12-20T14:10:01.527Z,7
2018-12-20T14:15:01.627Z,6.9
2018-12-20T14:20:01.500Z,6.9
2018-12-20T14:25:01.555Z,6.9
2018-12-20T14:30:02.086Z,6.9
2018-12-20T14:35:01.447Z,7
2018-12-20T14:40:01.451Z,6.9
2018-12-20T14:45:01.650Z,6.9
2018-12-20T14:50:01.576Z,6.9
2018-12-20T14:55:01.866Z,6.9
2018-12-20T15:00:01.206Z,6.8
2018-12-20T15:05:01.373Z,6.8
2018-12-20T15:10:01.456Z,6.8
2018-12-20T15:15:01.209Z,6.9
2018-12-20T15:20:01.888Z,6.8
2018-12-20T15:25:01.533Z,6.8
2018-12-20T15:30:01.747Z,6.8
2018-12-20T15:35:01.741Z,6.8
2018-12-20T15:40:01.664Z,6.8
2018-12-20T15:45:01.642Z,6.8
2018-12-20T15:50:02.132Z,6.7
2018-12-20T15:55:02.020Z,6.7
2018-12-20T16:00:01.598Z,6.7
2018-12-20T16:05:01.428Z,6.7
2018-12-20T16:10:01.932Z,6.7
2018-12-20T16:15:02.151Z,6.7
2018-12-20T16:20:01.808Z,6.7
2018-12-20T16:25:01.946Z,6.7
2018-12-20T16:30:01.515Z,6.7
2018-12-20T16:35:02.039Z,6.7
2018-12-20T16:40:02.092Z,6.7
2018-12-20T16:45:02.037Z,6.7
2018-12-20T16:50:02.115Z,6.6
2018-12-20T16:55:01.206Z,6.6
2018-12-20T17:00:01.673Z,6.6
2018-12-20T17:05:02.198Z,6.6
2018-12-20T17:10:02.014Z,6.6
2018-12-20T17:15:01.406Z,6.6
2018-12-20T17:20:01.265Z,6.6
2018-12-20T17:25:01.523Z,6.5
2018-12-20T17:30:01.926Z,6.5
2018-12-20T17:35:02.049Z,6.5
2018-12-20T17:40:02.024Z,6.5
2018-12-20T17:45:01.624Z,6.5
2018-12-20T17:50:01.610Z,6.5
2018-12-20T17:55:01.781Z,6.5
2018-12-20T18:00:01.219Z,6.5
2018-12-20T18:05:06.797Z,6.5
2018-12-20T18:10:01.770Z,6.5
2018-12-20T18:15:02.062Z,6.5
2018-12-20T18:20:01.927Z,6.5
2018-12-20T18:25:02.093Z,6.7
2018-12-20T18:30:01.566Z,6.7
2018-12-20T18:35:02.012Z,6.6
2018-12-20T18:40:01.308Z,6.7
2018-12-20T18:45:02.249Z,6.7
2018-12-20T18:50:01.413Z,6.7
2018-12-20T18:55:01.320Z,6.7
2018-12-20T19:00:01.860Z,6.7
2018-12-20T19:05:01.588Z,6.7
2018-12-20T19:10:01.794Z,6.7
2018-12-20T19:15:01.983Z,6.7
2018-12-20T19:20:02.300Z,6.7
2018-12-20T19:25:01.650Z,6.7
2018-12-20T19:30:02.016Z,6.7
2018-12-20T19:35:01.456Z,6.7
2018-12-20T19:40:01.565Z,6.7
2018-12-20T19:45:01.731Z,6.7
2018-12-20T19:50:04.884Z,6.7
2018-12-20T19:55:01.490Z,6.7
2018-12-20T20:00:01.831Z,6.7
2018-12-20T20:05:02.044Z,6.7
2018-12-20T20:10:02.115Z,6.7
2018-12-20T20:15:01.409Z,6.7
2018-12-20T20:20:03.861Z,6.7
2018-12-20T20:25:01.862Z,6.7
2018-12-20T20:30:01.495Z,6.7
2018-12-20T20:35:01.370Z,6.7
2018-12-20T20:40:01.728Z,6.7
2018-12-20T20:45:01.868Z,6.7
2018-12-20T20:50:02.258Z,6.7
2018-12-20T20:55:01.939Z,6.7
2018-12-20T21:00:01.770Z,6.7
2018-12-20T21:05:01.973Z,6.7
2018-12-20T21:10:01.562Z,6.7
2018-12-20T21:15:02.166Z,6.7
2018-12-20T21:20:01.574Z,6.7
2018-12-20T21:25:01.401Z,6.7
2018-12-20T21:30:01.466Z,6.7
2018-12-20T21:35:02.193Z,6.7
2018-12-20T21:40:01.962Z,6.7
2018-12-20T21:45:01.843Z,6.7
2018-12-20T21:50:01.759Z,6.7
2018-12-20T21:55:01.772Z,6.7
2018-12-20T22:00:02.095Z,6.7
2018-12-20T22:05:01.604Z,6.7
2018-12-20T22:10:01.639Z,6.7
2018-12-20T22:15:01.699Z,6.7
2018-12-20T22:20:01.699Z,6.7
2018-12-20T22:25:01.401Z,6.7
2018-12-20T22:30:01.855Z,6.7
2018-12-20T22:35:01.471Z,6.7
2018-12-20T22:40:01.550Z,6.7
2018-12-20T22:45:01.996Z,6.7
2018-12-20T22:50:01.784Z,6.7
2018-12-20T22:55:02.016Z,6.7
2018-12-20T23:00:02.116Z,6.7
2018-12-20T23:05:01.506Z,6.7
2018-12-20T23:10:01.566Z,6.7
2018-12-20T23:15:01.902Z,6.7
2018-12-20T23:20:01.589Z,6.7
2018-12-20T23:25:01.756Z,6.7
2018-12-20T23:30:01.411Z,6.7
2018-12-20T23:35:02.019Z,6.7
2018-12-20T23:40:02.196Z,6.7
2018-12-20T23:45:01.685Z,6.7
2018-12-20T23:50:01.503Z,6.7
2018-12-20T23:55:01.459Z,6.7
